Time;durP1;ratioP1;P1;durP2;ratioP2;P2;SDS_P1;SDS_P2;PMS_P1;PMS_P2;Temp;Humidity;BMP_temperature;BMP_pressure;BME280_temperature;BME280_humidity;BME280_pressure;Samples;Min_cycle;Max_cycle;Signal;HPM_P1;HPM_P2
2022/11/04 00:18:20;;;;;;;8.43;5.63;;;13.00;99.90;;;;;;20920841;28;20643;-70
2022/11/04 00:38:42;;;;;;;5.90;4.33;;;13.00;99.90;;;;;;20919155;28;20240;-70
2022/11/04 00:48:44;;;;;;;8.60;4.60;;;12.90;99.90;;;;;;20918811;28;20277;-69
2022/11/04 00:58:45;;;;;;;6.63;4.10;;;12.90;99.90;;;;;;20917227;28;20300;-69
2022/11/04 01:08:48;;;;;;;6.03;3.80;;;13.00;99.90;;;;;;20916405;28;20240;-68
2022/11/04 01:18:49;;;;;;;4.03;3.37;;;13.00;99.90;;;;;;20898328;28;20609;-69
2022/11/04 01:28:53;;;;;;;5.43;3.43;;;13.00;99.90;;;;;;20830370;28;20722;-69
2022/11/04 01:38:56;;;;;;;4.03;2.93;;;13.00;99.90;;;;;;20832001;28;20239;-68
2022/11/04 01:49:23;;;;;;;3.07;2.67;;;13.00;99.90;;;;;;20831186;28;20209;-69
2022/11/04 01:59:31;;;;;;;2.70;2.20;;;13.00;99.90;;;;;;20826881;28;20286;-68
2022/11/04 02:09:34;;;;;;;3.27;2.30;;;13.10;99.90;;;;;;20830255;28;20352;-69
2022/11/04 02:20:01;;;;;;;2.80;2.10;;;13.10;99.90;;;;;;20830207;28;20263;-68
2022/11/04 02:30:07;;;;;;;2.33;2.00;;;13.10;99.90;;;;;;20829451;28;20665;-69
2022/11/04 02:40:20;;;;;;;3.77;1.90;;;13.10;99.90;;;;;;20828897;28;20657;-69
2022/11/04 02:50:36;;;;;;;2.20;1.67;;;13.10;99.90;;;;;;20828878;28;20230;-69
2022/11/04 03:00:40;;;;;;;2.40;1.47;;;13.10;99.90;;;;;;20842218;28;20234;-69
2022/11/04 03:10:45;;;;;;;1.23;1.13;;;13.10;99.80;;;;;;20843290;28;20229;-69
2022/11/04 03:20:49;;;;;;;2.63;1.70;;;13.10;99.90;;;;;;20842222;28;20232;-69
2022/11/04 03:30:56;;;;;;;1.20;1.10;;;13.10;99.60;;;;;;20839314;28;20661;-70
2022/11/04 03:41:00;;;;;;;1.80;1.40;;;13.00;99.40;;;;;;20841205;28;20232;-70
2022/11/04 03:51:02;;;;;;;1.40;1.30;;;13.00;99.70;;;;;;20840872;28;20644;-70
2022/11/04 04:01:35;;;;;;;1.67;1.30;;;13.00;99.60;;;;;;20839669;28;20241;-69
2022/11/04 04:11:45;;;;;;;1.70;1.37;;;12.90;99.10;;;;;;20836968;28;20235;-69
2022/11/04 04:21:52;;;;;;;4.20;1.40;;;12.80;99.00;;;;;;20838278;28;20289;-70
2022/11/04 04:31:56;;;;;;;6.90;1.80;;;12.80;99.30;;;;;;20837611;28;20595;-69
2022/11/04 04:56:25;;;;;;;1.87;1.23;;;12.50;97.70;;;;;;21067809;28;20280;-69
2022/11/04 05:06:26;;;;;;;1.63;1.20;;;12.50;97.60;;;;;;21067214;28;20662;-68
2022/11/04 05:16:28;;;;;;;3.57;1.50;;;12.50;97.90;;;;;;21066705;28;20256;-69
2022/11/04 05:26:30;;;;;;;2.27;1.73;;;12.50;97.50;;;;;;20993892;28;20686;-69
2022/11/04 05:36:32;;;;;;;4.13;2.90;;;12.40;97.80;;;;;;20979888;28;20222;-69
2022/11/04 05:46:33;;;;;;;4.57;1.63;;;12.40;97.90;;;;;;20981691;28;20257;-69
2022/11/04 05:56:36;;;;;;;3.07;2.20;;;12.40;98.10;;;;;;21063097;28;20222;-68
2022/11/04 06:06:38;;;;;;;7.57;2.67;;;12.20;98.10;;;;;;20994689;28;20217;-68
2022/11/04 06:16:40;;;;;;;6.20;2.03;;;12.10;98.00;;;;;;21026145;28;20211;-68
2022/11/04 06:26:42;;;;;;;4.33;2.00;;;12.10;97.60;;;;;;21088707;28;20224;-69
2022/11/04 06:36:43;;;;;;;18.43;3.30;;;12.00;97.90;;;;;;21087780;28;20268;-69
2022/11/04 06:46:46;;;;;;;6.43;2.00;;;11.90;97.80;;;;;;21086690;28;20629;-69
2022/11/04 06:56:48;;;;;;;7.70;3.00;;;11.90;97.80;;;;;;21086494;28;20616;-69
2022/11/04 07:06:49;;;;;;;6.00;2.20;;;11.90;97.90;;;;;;21085047;28;20297;-67
2022/11/04 07:16:51;;;;;;;7.43;2.40;;;11.90;98.30;;;;;;21083106;28;20220;-68
2022/11/04 07:26:56;;;;;;;9.83;2.00;;;11.90;98.40;;;;;;21078977;28;20220;-68
2022/11/04 07:36:57;;;;;;;4.97;2.43;;;11.90;98.20;;;;;;21081055;28;20199;-68
2022/11/04 07:46:59;;;;;;;6.20;2.40;;;11.90;98.30;;;;;;21081896;28;20578;-69
2022/11/04 07:57:01;;;;;;;4.90;3.53;;;11.90;98.30;;;;;;21063424;28;20347;-68
2022/11/04 08:07:06;;;;;;;6.33;2.83;;;11.80;98.50;;;;;;21080425;28;20282;-69
2022/11/04 08:17:08;;;;;;;6.27;2.50;;;11.80;98.90;;;;;;21077974;28;20215;-68
2022/11/04 08:27:10;;;;;;;6.90;2.93;;;12.00;99.00;;;;;;21005871;28;20231;-70
2022/11/04 08:37:16;;;;;;;6.97;2.77;;;12.10;99.20;;;;;;21033285;28;20215;-68
2022/11/04 08:47:17;;;;;;;5.43;2.17;;;12.20;99.00;;;;;;21029653;28;20290;-68
2022/11/04 08:57:19;;;;;;;3.73;1.70;;;12.40;98.40;;;;;;21048662;28;20570;-67
2022/11/04 09:07:21;;;;;;;6.50;1.90;;;12.40;98.20;;;;;;21071205;28;20228;-67
2022/11/04 09:17:23;;;;;;;6.33;2.40;;;12.50;98.40;;;;;;20993989;28;20219;-65
2022/11/04 09:27:25;;;;;;;3.80;1.90;;;12.60;97.80;;;;;;20993025;28;20232;-64
2022/11/04 09:37:26;;;;;;;4.07;1.70;;;12.70;97.90;;;;;;20999140;28;20662;-66
2022/11/04 09:47:31;;;;;;;6.47;2.00;;;12.90;97.60;;;;;;21055347;28;20242;-66
2022/11/04 09:57:33;;;;;;;5.23;1.50;;;13.00;97.60;;;;;;21090532;28;20209;-67
2022/11/04 10:07:58;;;;;;;6.27;1.63;;;13.30;96.90;;;;;;21089220;28;20571;-66
2022/11/04 10:18:39;;;;;;;3.43;1.33;;;13.20;96.90;;;;;;21089146;28;20214;-67
2022/11/04 10:28:46;;;;;;;5.73;1.80;;;13.40;95.90;;;;;;21069805;28;20230;-65
2022/11/04 10:38:51;;;;;;;5.33;1.57;;;13.40;96.10;;;;;;21086136;28;20252;-67
2022/11/04 10:48:59;;;;;;;14.40;8.30;;;13.50;95.10;;;;;;21026556;28;20587;-66
2022/11/04 10:59:27;;;;;;;3.33;1.30;;;13.40;95.20;;;;;;21001229;28;20644;-65
2022/11/04 11:09:32;;;;;;;2.93;1.43;;;13.50;94.80;;;;;;20998672;28;20292;-66
2022/11/04 11:20:07;;;;;;;3.37;1.40;;;13.60;95.00;;;;;;21000577;28;20257;-67
2022/11/04 11:30:19;;;;;;;5.20;1.20;;;13.60;94.00;;;;;;20989240;28;20234;-68
2022/11/04 11:40:30;;;;;;;3.43;1.17;;;13.60;93.80;;;;;;20998012;28;20731;-67
2022/11/04 11:50:34;;;;;;;5.07;1.03;;;13.80;93.60;;;;;;21071603;28;20230;-68
2022/11/04 12:00:59;;;;;;;3.17;1.10;;;14.00;93.60;;;;;;21078983;28;20252;-71
2022/11/04 12:11:18;;;;;;;3.17;1.20;;;14.00;92.80;;;;;;21078537;28;20241;-70
2022/11/04 12:21:32;;;;;;;5.37;1.20;;;13.90;92.40;;;;;;21078553;28;20665;-72
2022/11/04 12:31:50;;;;;;;12.27;5.97;;;14.10;92.30;;;;;;21038030;28;20336;-70
2022/11/04 12:41:58;;;;;;;4.33;1.90;;;14.10;91.60;;;;;;21064382;28;20549;-71
2022/11/04 12:52:37;;;;;;;2.33;1.40;;;14.10;92.00;;;;;;20992657;28;20330;-68
2022/11/04 13:02:55;;;;;;;3.47;1.60;;;14.20;92.70;;;;;;20993620;28;20659;-69
2022/11/04 13:13:00;;;;;;;5.57;1.60;;;14.20;92.80;;;;;;21000750;28;20779;-77
2022/11/04 13:23:07;;;;;;;6.67;2.97;;;14.20;92.70;;;;;;21060209;28;20265;-75
2022/11/04 13:33:36;;;;;;;6.00;1.60;;;14.20;92.90;;;;;;21092987;28;20299;-81
2022/11/04 13:43:48;;;;;;;4.30;1.60;;;14.10;92.60;;;;;;21092077;28;20658;-75
2022/11/04 13:53:54;;;;;;;4.33;1.50;;;14.10;92.80;;;;;;21089262;28;20271;-74
2022/11/04 14:04:25;;;;;;;5.67;1.40;;;14.10;92.60;;;;;;21068368;28;20734;-71
2022/11/04 14:14:27;;;;;;;5.87;1.70;;;14.10;92.60;;;;;;21070603;28;20637;-72
2022/11/04 14:24:29;;;;;;;4.50;1.60;;;14.10;92.60;;;;;;21036759;28;20203;-72
2022/11/04 14:34:36;;;;;;;3.90;1.43;;;13.90;92.40;;;;;;21003986;28;20238;-72
2022/11/04 14:44:48;;;;;;;3.17;1.57;;;13.90;92.70;;;;;;21003638;28;20253;-72
2022/11/04 14:55:09;;;;;;;5.63;1.80;;;13.90;92.70;;;;;;21003028;28;20597;-71
2022/11/04 15:05:27;;;;;;;4.03;1.87;;;13.80;92.70;;;;;;21054784;28;20222;-72
2022/11/04 15:15:38;;;;;;;8.30;2.07;;;13.70;92.90;;;;;;20999800;28;20234;-72
2022/11/04 15:25:48;;;;;;;9.23;2.40;;;13.70;93.10;;;;;;21035276;28;20211;-72
2022/11/04 15:35:51;;;;;;;9.87;3.90;;;13.60;93.20;;;;;;20991861;28;20236;-71
2022/11/04 15:45:54;;;;;;;6.60;2.50;;;13.60;93.60;;;;;;21083311;28;20203;-71
2022/11/04 15:55:56;;;;;;;4.97;2.60;;;13.60;93.80;;;;;;21063583;28;20240;-72
2022/11/04 16:06:04;;;;;;;3.60;2.10;;;13.40;93.60;;;;;;21063174;28;20209;-71
2022/11/04 16:16:14;;;;;;;8.10;4.80;;;13.40;94.20;;;;;;21039609;28;20238;-72
2022/11/04 16:26:26;;;;;;;7.73;3.97;;;13.40;94.00;;;;;;21004230;28;20200;-68
2022/11/04 16:36:28;;;;;;;5.53;2.80;;;13.30;94.20;;;;;;21023340;28;20227;-73
2022/11/04 16:46:39;;;;;;;16.13;6.03;;;13.00;94.40;;;;;;21042167;28;20207;-71
2022/11/04 16:56:41;;;;;;;10.70;4.00;;;13.00;94.70;;;;;;20994888;28;20638;-73
2022/11/04 17:06:43;;;;;;;8.67;3.80;;;12.80;94.90;;;;;;20994400;28;20211;-73
2022/11/04 17:16:44;;;;;;;6.70;3.00;;;12.70;95.30;;;;;;20994211;28;20296;-71
2022/11/04 17:26:46;;;;;;;11.67;3.03;;;12.60;95.80;;;;;;20993549;28;20249;-71
2022/11/04 17:36:48;;;;;;;7.53;4.80;;;12.50;96.10;;;;;;20992964;28;20236;-67
2022/11/04 17:56:39;;;;;;;11.97;5.60;;;12.20;96.60;;;;;;20983951;28;20575;-65
2022/11/04 18:06:41;;;;;;;24.43;10.77;;;12.20;96.90;;;;;;20983459;28;20229;-66
2022/11/04 18:16:45;;;;;;;11.47;6.47;;;12.20;97.00;;;;;;20983445;28;20292;-68
2022/11/04 18:26:47;;;;;;;11.77;5.10;;;12.20;97.60;;;;;;20980966;28;20567;-68
2022/11/04 18:36:49;;;;;;;13.83;6.20;;;12.20;97.40;;;;;;20981387;28;20212;-70
2022/11/04 18:46:51;;;;;;;11.50;6.97;;;12.20;97.60;;;;;;20980285;28;20236;-69
2022/11/04 18:56:53;;;;;;;17.97;7.40;;;12.20;97.60;;;;;;20979141;28;20219;-70
2022/11/04 19:06:55;;;;;;;12.10;6.80;;;12.20;97.80;;;;;;20928264;28;20250;-66
2022/11/04 19:16:56;;;;;;;13.87;7.13;;;12.30;98.00;;;;;;20919723;28;20211;-68
2022/11/04 19:26:58;;;;;;;12.93;7.67;;;12.30;97.80;;;;;;20917503;28;20205;-68
2022/11/04 19:37:00;;;;;;;15.90;9.77;;;12.20;97.80;;;;;;20918300;28;20246;-68
2022/11/04 19:47:01;;;;;;;19.53;11.90;;;12.30;98.40;;;;;;20897005;28;20294;-69
2022/11/04 19:57:03;;;;;;;13.23;8.77;;;12.30;98.40;;;;;;20832321;28;20205;-68
2022/11/04 20:07:05;;;;;;;15.70;8.97;;;12.30;98.70;;;;;;20834505;28;20292;-70
2022/11/04 20:17:07;;;;;;;11.27;6.90;;;12.30;98.90;;;;;;20833340;28;20203;-68
2022/11/04 20:27:13;;;;;;;11.00;6.37;;;12.30;99.00;;;;;;20832603;28;20282;-69
2022/11/04 20:37:16;;;;;;;8.93;4.93;;;12.30;99.20;;;;;;20832331;28;20672;-69
2022/11/04 20:47:17;;;;;;;11.87;5.90;;;12.30;99.30;;;;;;20831430;28;20244;-68
2022/11/04 20:57:20;;;;;;;9.90;5.80;;;12.20;99.30;;;;;;20830736;28;20219;-69
2022/11/04 21:07:22;;;;;;;10.80;4.90;;;12.30;99.40;;;;;;20830319;28;20228;-69
2022/11/04 21:17:23;;;;;;;8.30;5.20;;;12.20;99.40;;;;;;20830577;28;20672;-68
2022/11/04 21:27:25;;;;;;;7.73;4.63;;;12.10;99.50;;;;;;20828439;28;20229;-70
2022/11/04 21:37:27;;;;;;;8.17;5.17;;;12.20;99.40;;;;;;20828083;28;20209;-70
2022/11/04 21:47:28;;;;;;;12.03;5.30;;;12.10;99.60;;;;;;20826480;28;20280;-70
2022/11/04 21:57:30;;;;;;;6.90;3.27;;;12.00;99.80;;;;;;20824278;28;20255;-70
2022/11/04 22:08:18;;;;;;;5.50;3.30;;;11.90;99.90;;;;;;20826863;28;20309;-70
2022/11/04 22:17:54;;;;;;;5.70;3.07;;;12.00;99.90;;;;;;20825413;28;20647;-69
2022/11/04 22:27:56;;;;;;;5.50;2.77;;;11.90;99.90;;;;;;20825920;28;20599;-70
2022/11/04 22:37:58;;;;;;;2.97;2.50;;;12.00;99.90;;;;;;20834678;28;20251;-69
2022/11/04 22:47:59;;;;;;;9.57;2.90;;;11.90;99.90;;;;;;20844095;28;20273;-70
2022/11/04 22:58:02;;;;;;;5.67;2.90;;;11.80;99.90;;;;;;20842286;28;20210;-70
2022/11/04 23:08:04;;;;;;;5.33;2.50;;;11.70;99.90;;;;;;20841588;28;20229;-70
2022/11/04 23:38:53;;;;;;;6.17;3.00;;;11.50;99.90;;;;;;20839314;28;20219;-70
